createdAt,value
2023-01-09T00:01:41.816Z,6.77
2023-01-09T00:04:10.624Z,6.78
2023-01-09T00:06:40.244Z,6.79
2023-01-09T00:09:08.863Z,6.81
2023-01-09T00:11:37.442Z,6.81
2023-01-09T00:14:06.287Z,6.80
2023-01-09T00:16:34.558Z,6.81
2023-01-09T00:19:04.263Z,6.80
2023-01-09T00:21:32.599Z,6.82
2023-01-09T00:24:00.904Z,6.83
2023-01-09T00:26:29.198Z,6.84
2023-01-09T00:28:57.433Z,6.86
2023-01-09T00:31:25.791Z,6.85
2023-01-09T00:33:59.850Z,6.87
2023-01-09T00:36:29.884Z,6.88
2023-01-09T00:38:58.151Z,6.88
2023-01-09T00:41:31.666Z,6.91
2023-01-09T00:44:04.419Z,6.91
2023-01-09T00:46:37.806Z,6.91
2023-01-09T00:49:08.349Z,6.92
2023-01-09T00:51:39.616Z,6.94
2023-01-09T00:54:08.097Z,6.95
2023-01-09T00:56:37.425Z,6.96
2023-01-09T00:59:06.684Z,6.98
2023-01-09T01:01:35.020Z,6.98
2023-01-09T01:04:23.487Z,6.98
2023-01-09T01:07:10.847Z,6.97
2023-01-09T01:09:39.237Z,6.95
2023-01-09T01:12:07.654Z,6.96
2023-01-09T01:14:36.324Z,6.98
2023-01-09T01:17:05.415Z,6.99
2023-01-09T01:19:34.651Z,7.00
2023-01-09T01:22:04.963Z,7.01
2023-01-09T01:24:33.410Z,7.04
2023-01-09T01:27:01.835Z,7.03
2023-01-09T01:29:30.095Z,7.05
2023-01-09T01:31:58.372Z,7.06
2023-01-09T01:34:26.698Z,7.06
2023-01-09T01:36:54.904Z,7.06
2023-01-09T01:39:24.530Z,7.07
2023-01-09T01:41:52.835Z,7.07
2023-01-09T01:45:01.714Z,7.10
2023-01-09T01:47:37.532Z,7.10
2023-01-09T01:50:11.578Z,7.11
2023-01-09T01:52:40.188Z,7.14
2023-01-09T01:55:12.300Z,7.15
2023-01-09T01:57:44.318Z,7.16
2023-01-09T02:00:14.510Z,7.16
2023-01-09T02:02:45.892Z,7.20
2023-01-09T02:05:14.313Z,7.18
2023-01-09T02:07:42.548Z,7.21
2023-01-09T02:10:12.474Z,7.22
2023-01-09T02:12:40.706Z,7.23
2023-01-09T02:15:12.775Z,7.25
2023-01-09T02:18:21.095Z,7.25
2023-01-09T02:20:58.674Z,7.25
2023-01-09T02:24:06.915Z,7.25
2023-01-09T02:27:17.182Z,7.25
2023-01-09T02:30:34.783Z,7.23
2023-01-09T02:33:51.121Z,7.22
2023-01-09T02:36:30.357Z,7.23
2023-01-09T02:39:16.855Z,7.24
2023-01-09T02:41:52.126Z,7.24
2023-01-09T02:44:24.099Z,7.27
2023-01-09T02:47:05.179Z,7.28
2023-01-09T02:49:34.791Z,7.29
2023-01-09T02:52:22.438Z,7.26
2023-01-09T02:55:02.427Z,7.24
2023-01-09T02:57:49.111Z,7.21
2023-01-09T03:00:35.178Z,7.23
2023-01-09T03:03:12.595Z,7.21
2023-01-09T03:05:45.924Z,7.21
2023-01-09T03:08:19.098Z,7.21
2023-01-09T03:10:53.119Z,7.22
2023-01-09T03:13:26.178Z,7.22
2023-01-09T03:15:56.886Z,7.21
2023-01-09T03:18:30.003Z,7.20
2023-01-09T03:20:58.258Z,7.22
2023-01-09T03:23:26.487Z,7.23
2023-01-09T03:25:54.707Z,7.23
2023-01-09T03:28:29.513Z,7.23
2023-01-09T03:30:57.734Z,7.24
2023-01-09T03:33:28.907Z,7.26
2023-01-09T03:35:57.147Z,7.27
2023-01-09T03:38:25.384Z,7.26
2023-01-09T03:40:53.607Z,7.30
2023-01-09T03:43:21.816Z,7.32
2023-01-09T03:45:50.120Z,7.34
2023-01-09T03:48:18.457Z,7.34
2023-01-09T03:50:50.131Z,7.35
2023-01-09T03:53:18.860Z,7.37
2023-01-09T03:55:48.416Z,7.38
2023-01-09T03:58:17.821Z,7.40
2023-01-09T04:00:48.823Z,7.41
2023-01-09T04:03:19.836Z,7.42
2023-01-09T04:05:50.734Z,7.44
2023-01-09T04:08:19.747Z,7.45
2023-01-09T04:10:48.798Z,7.47
2023-01-09T04:13:17.421Z,7.49
2023-01-09T04:15:45.665Z,7.50
2023-01-09T04:18:14.568Z,7.52
2023-01-09T04:20:43.296Z,7.53
2023-01-09T04:23:12.935Z,7.54
2023-01-09T04:25:41.201Z,7.55
2023-01-09T04:28:09.563Z,7.56
2023-01-09T04:30:37.797Z,7.57
2023-01-09T04:33:06.065Z,7.57
2023-01-09T04:35:34.341Z,7.58
2023-01-09T04:38:02.612Z,7.59
2023-01-09T04:40:32.195Z,7.59
2023-01-09T04:43:00.535Z,7.60
2023-01-09T04:45:28.962Z,7.62
2023-01-09T04:47:57.190Z,7.62
2023-01-09T04:50:25.432Z,7.61
2023-01-09T04:52:53.683Z,7.62
2023-01-09T04:55:21.917Z,7.62
2023-01-09T04:57:51.516Z,7.63
2023-01-09T05:00:20.289Z,7.63
2023-01-09T05:02:48.554Z,7.64
2023-01-09T05:05:16.837Z,7.64
2023-01-09T05:07:45.074Z,7.64
2023-01-09T05:10:14.098Z,7.64
2023-01-09T05:12:42.353Z,7.65
2023-01-09T05:15:13.162Z,7.63
2023-01-09T05:17:41.420Z,7.64
2023-01-09T05:20:11.077Z,7.65
2023-01-09T05:22:39.290Z,7.64
2023-01-09T05:25:08.702Z,7.64
2023-01-09T05:27:36.986Z,7.63
2023-01-09T05:30:06.168Z,7.65
2023-01-09T05:32:35.717Z,7.65
2023-01-09T05:35:04.093Z,7.65
2023-01-09T05:37:32.369Z,7.66
2023-01-09T05:40:00.615Z,7.66
2023-01-09T05:42:28.968Z,7.66
2023-01-09T05:44:57.202Z,7.67
2023-01-09T05:47:25.458Z,7.67
2023-01-09T05:49:56.293Z,7.67
2023-01-09T05:52:25.143Z,7.68
2023-01-09T05:54:53.390Z,7.67
2023-01-09T05:57:21.869Z,7.68
2023-01-09T05:59:50.081Z,7.68
2023-01-09T06:02:18.363Z,7.70
2023-01-09T06:04:46.639Z,7.69
2023-01-09T06:07:20.363Z,7.70
2023-01-09T06:09:49.847Z,7.71
2023-01-09T06:12:18.103Z,7.70
2023-01-09T06:14:46.360Z,7.72
2023-01-09T06:17:14.572Z,7.74
2023-01-09T06:19:42.849Z,7.75
2023-01-09T06:22:11.061Z,7.76
2023-01-09T06:24:40.657Z,7.76
2023-01-09T06:27:08.913Z,7.75
2023-01-09T06:29:37.127Z,7.76
2023-01-09T06:32:05.777Z,7.75
2023-01-09T06:34:34.133Z,7.76
2023-01-09T06:37:02.523Z,7.76
2023-01-09T06:39:30.778Z,7.76
2023-01-09T06:42:00.447Z,7.76
2023-01-09T06:44:28.707Z,7.76
2023-01-09T06:46:56.964Z,7.76
2023-01-09T06:49:25.309Z,7.77
2023-01-09T06:51:53.749Z,7.76
2023-01-09T06:54:22.658Z,7.76
2023-01-09T06:56:51.000Z,7.76
2023-01-09T06:59:20.609Z,7.75
2023-01-09T07:01:48.968Z,7.75
2023-01-09T07:04:18.412Z,7.75
2023-01-09T07:06:49.731Z,7.74
2023-01-09T07:09:18.070Z,7.75
2023-01-09T07:11:46.346Z,7.73
2023-01-09T07:14:14.564Z,7.73
2023-01-09T07:16:44.192Z,7.72
2023-01-09T07:19:12.421Z,7.72
2023-01-09T07:21:40.646Z,7.71
2023-01-09T07:24:08.953Z,7.70
2023-01-09T07:26:37.163Z,7.71
2023-01-09T07:29:05.744Z,7.71
2023-01-09T07:31:34.085Z,7.67
2023-01-09T07:34:03.795Z,7.67
2023-01-09T07:36:32.027Z,7.66
2023-01-09T07:39:00.271Z,7.67
2023-01-09T07:41:28.475Z,7.68
2023-01-09T07:43:57.818Z,7.67
2023-01-09T07:46:26.112Z,7.68
2023-01-09T07:48:54.363Z,7.67
2023-01-09T07:51:23.911Z,7.70
2023-01-09T07:53:52.164Z,7.72
2023-01-09T07:56:20.371Z,7.78
2023-01-09T07:58:48.663Z,7.77
2023-01-09T08:01:17.336Z,7.84
2023-01-09T08:03:45.606Z,7.93
2023-01-09T08:06:13.865Z,7.99
2023-01-09T08:08:44.103Z,8.05
2023-01-09T08:11:12.367Z,8.09
2023-01-09T08:13:40.568Z,8.13
2023-01-09T08:16:09.251Z,8.22
2023-01-09T08:18:37.601Z,8.28
2023-01-09T08:21:06.210Z,8.36
2023-01-09T08:23:34.416Z,8.41
2023-01-09T08:26:04.618Z,8.47
2023-01-09T08:28:33.229Z,8.52
2023-01-09T08:31:01.579Z,8.59
2023-01-09T08:33:29.957Z,8.65
2023-01-09T08:35:58.211Z,8.68
2023-01-09T08:38:26.585Z,8.75
2023-01-09T08:40:54.855Z,8.79
2023-01-09T08:43:38.405Z,8.82
2023-01-09T08:46:25.096Z,8.88
2023-01-09T08:48:53.376Z,8.87
2023-01-09T08:51:21.576Z,8.86
2023-01-09T08:53:49.821Z,8.83
2023-01-09T08:56:18.020Z,8.89
2023-01-09T08:58:47.631Z,8.93
2023-01-09T09:01:15.905Z,8.89
2023-01-09T09:03:44.199Z,8.93
2023-01-09T09:06:12.393Z,8.92
2023-01-09T09:08:40.636Z,8.96
2023-01-09T09:11:08.893Z,8.95
2023-01-09T09:13:37.191Z,9.02
2023-01-09T09:16:07.785Z,9.06
2023-01-09T09:18:36.099Z,9.08
2023-01-09T09:21:04.387Z,9.10
2023-01-09T09:23:32.668Z,9.06
2023-01-09T09:26:00.885Z,9.07
2023-01-09T09:28:29.242Z,9.11
2023-01-09T09:30:57.467Z,9.15
2023-01-09T09:33:27.088Z,9.12
2023-01-09T09:35:55.350Z,9.17
2023-01-09T09:38:23.573Z,9.21
2023-01-09T09:41:42.575Z,9.26
2023-01-09T09:44:53.397Z,9.29
2023-01-09T09:47:38.287Z,9.34
2023-01-09T09:50:27.637Z,9.37
2023-01-09T09:53:03.062Z,9.40
2023-01-09T09:55:35.015Z,9.30
2023-01-09T09:58:08.040Z,9.44
2023-01-09T10:00:37.389Z,9.46
2023-01-09T10:03:09.511Z,9.51
2023-01-09T10:05:43.782Z,9.54
2023-01-09T10:08:32.881Z,9.54
2023-01-09T10:11:01.405Z,9.61
2023-01-09T10:13:47.216Z,9.58
2023-01-09T10:16:30.238Z,9.61
2023-01-09T10:19:16.211Z,9.63
2023-01-09T10:21:58.452Z,9.67
2023-01-09T10:24:53.217Z,9.71
2023-01-09T10:27:38.018Z,9.75
2023-01-09T10:30:27.466Z,9.77
2023-01-09T10:33:07.868Z,9.81
2023-01-09T10:35:51.720Z,9.82
2023-01-09T10:38:28.118Z,9.86
2023-01-09T10:41:03.105Z,9.89
2023-01-09T10:43:35.866Z,9.93
2023-01-09T10:46:07.983Z,9.93
2023-01-09T10:48:38.992Z,9.93
2023-01-09T10:51:17.860Z,9.99
2023-01-09T10:53:51.350Z,10.02
2023-01-09T10:56:25.327Z,10.03
2023-01-09T10:58:55.662Z,10.05
2023-01-09T11:01:28.539Z,10.06
2023-01-09T11:03:59.127Z,10.11
2023-01-09T11:06:36.329Z,10.11
2023-01-09T11:09:07.482Z,10.12
2023-01-09T11:11:37.961Z,10.13
2023-01-09T11:14:14.692Z,10.11
2023-01-09T11:16:54.153Z,10.13
2023-01-09T11:19:23.525Z,10.15
2023-01-09T11:21:52.390Z,10.17
2023-01-09T11:24:31.636Z,10.16
2023-01-09T11:27:25.312Z,10.17
2023-01-09T11:30:26.518Z,10.17
2023-01-09T11:32:56.157Z,10.16
2023-01-09T11:35:34.202Z,10.20
2023-01-09T11:38:08.896Z,10.25
2023-01-09T11:40:49.420Z,10.26
2023-01-09T11:43:30.778Z,10.28
2023-01-09T11:46:02.270Z,10.32
2023-01-09T11:48:44.225Z,10.31
2023-01-09T11:51:23.399Z,10.31
2023-01-09T11:54:17.636Z,10.34
2023-01-09T11:56:49.430Z,10.35
2023-01-09T11:59:21.090Z,10.40
2023-01-09T12:02:24.268Z,10.40
2023-01-09T12:04:56.340Z,10.42
2023-01-09T12:08:03.083Z,10.42
2023-01-09T12:11:20.490Z,10.40
2023-01-09T12:14:11.122Z,10.35
2023-01-09T12:16:48.444Z,10.39
2023-01-09T12:19:47.871Z,10.40
2023-01-09T12:22:28.644Z,10.42
2023-01-09T12:25:35.287Z,10.43
2023-01-09T12:28:34.111Z,10.45
2023-01-09T12:31:20.505Z,10.46
2023-01-09T12:33:58.416Z,10.48
2023-01-09T12:36:34.167Z,10.51
2023-01-09T12:39:10.357Z,10.54
2023-01-09T12:41:52.199Z,10.57
2023-01-09T12:44:52.255Z,10.56
2023-01-09T12:47:45.704Z,10.57
2023-01-09T12:51:11.455Z,10.55
2023-01-09T12:53:44.899Z,10.54
2023-01-09T12:56:18.043Z,10.51
2023-01-09T12:58:51.978Z,10.53
2023-01-09T13:01:26.725Z,10.54
2023-01-09T13:04:08.047Z,10.56
2023-01-09T13:06:39.083Z,10.59
2023-01-09T13:09:21.910Z,10.62
2023-01-09T13:11:58.653Z,10.63
2023-01-09T13:14:49.662Z,10.64
2023-01-09T13:17:24.939Z,10.61
2023-01-09T13:19:54.832Z,10.62
2023-01-09T13:22:27.326Z,10.64
2023-01-09T13:25:36.094Z,10.61
2023-01-09T13:28:09.759Z,10.62
2023-01-09T13:31:09.821Z,10.63
2023-01-09T13:33:40.244Z,10.66
2023-01-09T13:36:11.308Z,10.68
2023-01-09T13:38:40.336Z,10.72
2023-01-09T13:41:32.293Z,10.69
2023-01-09T13:44:03.583Z,10.72
2023-01-09T13:46:45.557Z,10.71
2023-01-09T13:50:14.967Z,10.72
2023-01-09T13:52:45.084Z,10.73
2023-01-09T13:55:36.078Z,10.75
2023-01-09T13:58:25.908Z,10.76
2023-01-09T14:01:06.138Z,10.77
2023-01-09T14:03:37.636Z,10.77
2023-01-09T14:06:17.445Z,10.80
2023-01-09T14:08:51.417Z,10.80
2023-01-09T14:11:29.132Z,10.81
2023-01-09T14:14:09.150Z,10.80
2023-01-09T14:16:39.153Z,10.82
2023-01-09T14:19:25.031Z,10.81
2023-01-09T14:21:57.512Z,10.83
2023-01-09T14:24:31.602Z,10.84
2023-01-09T14:27:01.800Z,10.84
2023-01-09T14:29:47.716Z,10.84
2023-01-09T14:32:39.398Z,10.83
2023-01-09T14:35:19.076Z,10.83
2023-01-09T14:38:20.187Z,10.82
2023-01-09T14:40:57.465Z,10.82
2023-01-09T14:43:40.409Z,10.84
2023-01-09T14:46:14.543Z,10.86
2023-01-09T14:48:59.068Z,10.86
2023-01-09T14:51:29.229Z,10.86
2023-01-09T14:54:00.734Z,10.86
2023-01-09T14:56:34.610Z,10.86
2023-01-09T14:59:14.882Z,10.85
2023-01-09T15:01:47.261Z,10.87
2023-01-09T15:04:31.633Z,10.86
2023-01-09T15:07:00.218Z,10.85
2023-01-09T15:09:32.027Z,10.81
2023-01-09T15:12:06.901Z,10.80
2023-01-09T15:14:39.996Z,10.78
2023-01-09T15:17:18.236Z,10.76
2023-01-09T15:19:47.406Z,10.75
2023-01-09T15:22:25.603Z,10.73
2023-01-09T15:24:53.829Z,10.71
2023-01-09T15:27:23.782Z,10.68
2023-01-09T15:29:52.835Z,10.66
2023-01-09T15:32:26.378Z,10.62
2023-01-09T15:34:57.024Z,10.58
2023-01-09T15:37:30.704Z,10.53
2023-01-09T15:40:01.205Z,10.48
2023-01-09T15:43:04.250Z,10.42
2023-01-09T15:45:38.478Z,10.35
2023-01-09T15:48:23.207Z,10.27
2023-01-09T15:50:55.397Z,10.20
2023-01-09T15:53:26.485Z,10.15
2023-01-09T15:56:08.815Z,10.07
2023-01-09T15:58:40.147Z,10.02
2023-01-09T16:01:25.018Z,9.95
2023-01-09T16:03:54.360Z,9.90
2023-01-09T16:06:27.758Z,9.86
2023-01-09T16:08:58.430Z,9.81
2023-01-09T16:11:30.233Z,9.78
2023-01-09T16:14:13.471Z,9.74
2023-01-09T16:16:43.865Z,9.72
2023-01-09T16:19:32.843Z,9.65
2023-01-09T16:22:03.867Z,9.61
2023-01-09T16:24:42.005Z,9.59
2023-01-09T16:27:30.447Z,9.53
2023-01-09T16:30:01.207Z,9.51
2023-01-09T16:32:31.670Z,9.44
2023-01-09T16:35:04.665Z,9.39
2023-01-09T16:37:34.832Z,9.33
2023-01-09T16:40:26.874Z,9.27
2023-01-09T16:43:07.093Z,9.23
2023-01-09T16:45:40.096Z,9.18
2023-01-09T16:48:16.977Z,9.15
2023-01-09T16:50:45.612Z,9.12
2023-01-09T16:53:17.876Z,9.10
2023-01-09T16:55:46.686Z,9.08
2023-01-09T16:58:18.838Z,9.05
2023-01-09T17:00:48.989Z,9.03
2023-01-09T17:03:20.186Z,9.00
2023-01-09T17:05:51.402Z,8.96
2023-01-09T17:08:25.871Z,8.90
2023-01-09T17:10:56.391Z,8.82
2023-01-09T17:13:25.112Z,8.76
2023-01-09T17:15:56.293Z,8.70
2023-01-09T17:18:26.931Z,8.63
2023-01-09T17:20:58.205Z,8.61
2023-01-09T17:23:26.795Z,8.57
2023-01-09T17:26:16.231Z,8.53
2023-01-09T17:28:48.827Z,8.49
2023-01-09T17:31:19.381Z,8.48
2023-01-09T17:33:47.841Z,8.47
2023-01-09T17:36:24.753Z,8.46
2023-01-09T17:38:55.096Z,8.47
2023-01-09T17:41:24.762Z,8.44
2023-01-09T17:43:53.138Z,8.45
2023-01-09T17:46:28.648Z,8.43
2023-01-09T17:48:57.451Z,8.43
2023-01-09T17:51:26.093Z,8.42
2023-01-09T17:53:54.488Z,8.43
2023-01-09T17:56:24.695Z,8.42
2023-01-09T17:58:53.063Z,8.43
2023-01-09T18:01:23.356Z,8.42
2023-01-09T18:03:52.019Z,8.43
2023-01-09T18:06:23.156Z,8.45
2023-01-09T18:08:51.708Z,8.47
2023-01-09T18:11:22.588Z,8.48
2023-01-09T18:13:54.323Z,8.50
2023-01-09T18:16:27.356Z,8.51
2023-01-09T18:18:58.220Z,8.54
2023-01-09T18:21:28.945Z,8.56
2023-01-09T18:23:57.772Z,8.55
2023-01-09T18:26:26.094Z,8.58
2023-01-09T18:28:59.156Z,8.58
2023-01-09T18:31:30.396Z,8.61
2023-01-09T18:34:02.456Z,8.62
2023-01-09T18:36:31.129Z,8.65
2023-01-09T18:39:01.786Z,8.67
2023-01-09T18:41:31.590Z,8.68
2023-01-09T18:44:02.328Z,8.70
2023-01-09T18:46:32.363Z,8.72
2023-01-09T18:49:03.009Z,8.74
2023-01-09T18:51:32.990Z,8.77
2023-01-09T18:54:01.338Z,8.79
2023-01-09T18:56:29.727Z,8.82
2023-01-09T18:58:58.913Z,8.82
2023-01-09T19:01:29.528Z,8.82
2023-01-09T19:04:00.823Z,8.82
2023-01-09T19:06:30.236Z,8.85
2023-01-09T19:09:00.169Z,8.86
2023-01-09T19:11:28.673Z,8.88
2023-01-09T19:13:56.925Z,8.92
2023-01-09T19:16:25.247Z,8.93
2023-01-09T19:18:53.564Z,8.97
2023-01-09T19:21:26.831Z,8.96
2023-01-09T19:23:55.386Z,8.98
2023-01-09T19:26:26.357Z,8.99
2023-01-09T19:28:57.619Z,9.00
2023-01-09T19:31:28.429Z,9.02
2023-01-09T19:33:57.676Z,9.02
2023-01-09T19:36:29.000Z,9.00
2023-01-09T19:38:58.131Z,9.00
2023-01-09T19:41:27.069Z,8.97
2023-01-09T19:43:55.639Z,8.96
2023-01-09T19:46:26.063Z,8.93
2023-01-09T19:48:54.882Z,8.91
2023-01-09T19:51:25.486Z,8.89
2023-01-09T19:56:29.514Z,8.82
2023-01-09T19:59:00.257Z,8.78
2023-01-09T20:01:31.199Z,8.78
2023-01-09T20:04:03.340Z,8.75
2023-01-09T20:06:32.663Z,8.70
2023-01-09T20:09:04.873Z,8.70
2023-01-09T20:11:34.640Z,8.66
2023-01-09T20:14:02.939Z,8.62
2023-01-09T20:16:31.874Z,8.61
2023-01-09T20:19:03.624Z,8.55
2023-01-09T20:21:32.064Z,8.53
2023-01-09T20:24:04.872Z,8.52
2023-01-09T20:26:34.439Z,8.50
2023-01-09T20:29:02.903Z,8.53
2023-01-09T20:31:33.078Z,8.51
2023-01-09T20:34:01.633Z,8.51
2023-01-09T20:36:31.934Z,8.53
2023-01-09T20:39:04.085Z,8.53
2023-01-09T20:41:32.485Z,8.55
2023-01-09T20:44:02.865Z,8.55
2023-01-09T20:46:34.351Z,8.53
2023-01-09T20:49:03.420Z,8.58
2023-01-09T20:51:32.149Z,8.59
2023-01-09T20:54:02.127Z,8.59
2023-01-09T20:56:32.427Z,8.60
2023-01-09T20:59:01.674Z,8.62
2023-01-09T21:01:30.182Z,8.61
2023-01-09T21:04:00.187Z,8.60
2023-01-09T21:06:29.291Z,8.62
2023-01-09T21:08:57.643Z,8.62
2023-01-09T21:11:27.287Z,8.62
2023-01-09T21:13:55.542Z,8.62
2023-01-09T21:16:24.754Z,8.61
2023-01-09T21:18:54.713Z,8.59
2023-01-09T21:21:27.254Z,8.56
2023-01-09T21:23:58.073Z,8.55
2023-01-09T21:26:30.707Z,8.53
2023-01-09T21:29:01.229Z,8.53
2023-01-09T21:31:34.596Z,8.52
2023-01-09T21:34:04.824Z,8.52
2023-01-09T21:36:35.284Z,8.50
2023-01-09T21:39:07.918Z,8.49
2023-01-09T21:41:55.685Z,8.47
2023-01-09T21:44:41.392Z,8.46
2023-01-09T21:47:10.066Z,8.43
2023-01-09T21:49:41.889Z,8.38
2023-01-09T21:52:10.915Z,8.42
2023-01-09T21:54:39.237Z,8.40
2023-01-09T21:57:09.154Z,8.40
2023-01-09T21:59:37.637Z,8.40
2023-01-09T22:02:06.083Z,8.40
2023-01-09T22:04:34.535Z,8.40
2023-01-09T22:07:02.823Z,8.40
2023-01-09T22:09:31.183Z,8.41
2023-01-09T22:11:59.551Z,8.42
2023-01-09T22:14:29.268Z,8.42
2023-01-09T22:16:57.496Z,8.44
2023-01-09T22:19:27.987Z,8.44
2023-01-09T22:21:56.415Z,8.42
2023-01-09T22:24:24.687Z,8.45
2023-01-09T22:26:53.016Z,8.43
2023-01-09T22:29:21.841Z,8.43
2023-01-09T22:31:51.654Z,8.43
2023-01-09T22:34:20.608Z,8.43
2023-01-09T22:36:49.005Z,8.43
2023-01-09T22:39:19.950Z,8.43
2023-01-09T22:41:52.451Z,8.40
2023-01-09T22:44:20.681Z,8.37
2023-01-09T22:46:50.281Z,8.37
2023-01-09T22:49:18.609Z,8.39
2023-01-09T22:51:46.866Z,8.34
2023-01-09T22:54:15.327Z,8.34
2023-01-09T22:56:43.583Z,8.34
2023-01-09T22:59:12.037Z,8.34
2023-01-09T23:01:40.322Z,8.35
2023-01-09T23:04:13.548Z,8.34
2023-01-09T23:06:41.852Z,8.34
2023-01-09T23:09:10.110Z,8.32
2023-01-09T23:11:55.857Z,8.34
2023-01-09T23:14:24.159Z,8.33
2023-01-09T23:16:52.410Z,8.34
2023-01-09T23:19:22.220Z,8.36
2023-01-09T23:21:50.449Z,8.34
2023-01-09T23:24:19.848Z,8.34
2023-01-09T23:26:48.128Z,8.34
2023-01-09T23:29:16.421Z,8.34
2023-01-09T23:31:44.696Z,8.36
2023-01-09T23:34:17.722Z,8.39
2023-01-09T23:36:48.613Z,8.40
2023-01-09T23:39:16.985Z,8.43
2023-01-09T23:42:02.979Z,8.43
2023-01-09T23:44:31.475Z,8.40
2023-01-09T23:46:59.792Z,8.37
2023-01-09T23:49:28.012Z,8.39
2023-01-09T23:51:57.651Z,8.39
2023-01-09T23:54:26.145Z,8.40
2023-01-09T23:56:56.428Z,8.39
2023-01-09T23:59:25.131Z,8.40
